sensor_id;sensor_type;location;lat;lon;timestamp;pressure;altitude;pressure_sealevel;temperature;humidity
48424;BME280;34232;42.502;26.014;2022-11-18T00:00:03;99078.38;;;9.70;94.41
48424;BME280;34232;42.502;26.014;2022-11-18T00:02:29;99094.00;;;9.71;94.79
48424;BME280;34232;42.502;26.014;2022-11-18T00:04:55;99088.34;;;9.66;94.24
48424;BME280;34232;42.502;26.014;2022-11-18T00:07:20;99096.09;;;9.58;94.75
48424;BME280;34232;42.502;26.014;2022-11-18T00:09:46;99085.19;;;9.53;95.44
48424;BME280;34232;42.502;26.014;2022-11-18T00:12:11;99081.75;;;9.53;95.50
48424;BME280;34232;42.502;26.014;2022-11-18T00:14:55;99072.91;;;9.54;95.62
48424;BME280;34232;42.502;26.014;2022-11-18T00:17:20;99084.72;;;9.67;95.35
48424;BME280;34232;42.502;26.014;2022-11-18T00:19:46;99086.94;;;9.72;94.53
48424;BME280;34232;42.502;26.014;2022-11-18T00:22:11;99085.69;;;9.66;94.79
48424;BME280;34232;42.502;26.014;2022-11-18T00:24:37;99095.53;;;9.64;95.31
48424;BME280;34232;42.502;26.014;2022-11-18T00:27:03;99092.91;;;9.64;95.65
48424;BME280;34232;42.502;26.014;2022-11-18T00:29:28;99089.03;;;9.68;94.59
48424;BME280;34232;42.502;26.014;2022-11-18T00:31:55;99090.00;;;9.67;94.72
48424;BME280;34232;42.502;26.014;2022-11-18T00:34:21;99092.19;;;9.72;94.24
48424;BME280;34232;42.502;26.014;2022-11-18T00:36:46;99082.78;;;9.69;94.33
48424;BME280;34232;42.502;26.014;2022-11-18T00:39:14;99090.00;;;9.67;94.27
48424;BME280;34232;42.502;26.014;2022-11-18T00:41:40;99084.59;;;9.69;93.73
48424;BME280;34232;42.502;26.014;2022-11-18T00:44:24;99089.72;;;9.70;93.35
48424;BME280;34232;42.502;26.014;2022-11-18T00:46:50;99091.94;;;9.65;93.08
48424;BME280;34232;42.502;26.014;2022-11-18T00:49:15;99078.16;;;9.54;93.47
48424;BME280;34232;42.502;26.014;2022-11-18T00:51:41;99083.13;;;9.57;92.88
48424;BME280;34232;42.502;26.014;2022-11-18T00:54:06;99087.25;;;9.59;92.61
48424;BME280;34232;42.502;26.014;2022-11-18T00:56:32;99089.59;;;9.62;91.96
48424;BME280;34232;42.502;26.014;2022-11-18T00:58:57;99094.16;;;9.60;91.46
48424;BME280;34232;42.502;26.014;2022-11-18T01:01:23;99090.84;;;9.58;91.27
48424;BME280;34232;42.502;26.014;2022-11-18T01:03:49;99089.34;;;9.56;91.19
48424;BME280;34232;42.502;26.014;2022-11-18T01:06:14;99098.56;;;9.60;91.08
48424;BME280;34232;42.502;26.014;2022-11-18T01:08:40;99097.75;;;9.59;91.21
48424;BME280;34232;42.502;26.014;2022-11-18T01:11:05;99101.06;;;9.61;90.45
48424;BME280;34232;42.502;26.014;2022-11-18T01:13:50;99113.81;;;9.56;90.55
48424;BME280;34232;42.502;26.014;2022-11-18T01:16:21;99110.50;;;9.54;91.12
48424;BME280;34232;42.502;26.014;2022-11-18T01:18:47;99104.84;;;9.49;91.12
48424;BME280;34232;42.502;26.014;2022-11-18T01:21:12;99111.06;;;9.48;90.85
48424;BME280;34232;42.502;26.014;2022-11-18T01:23:38;99102.63;;;9.44;90.83
48424;BME280;34232;42.502;26.014;2022-11-18T01:26:05;99103.09;;;9.40;90.52
48424;BME280;34232;42.502;26.014;2022-11-18T01:28:31;99103.38;;;9.37;90.97
48424;BME280;34232;42.502;26.014;2022-11-18T01:31:06;99087.63;;;9.27;90.61
48424;BME280;34232;42.502;26.014;2022-11-18T01:33:32;99094.66;;;9.27;90.23
48424;BME280;34232;42.502;26.014;2022-11-18T01:35:58;99094.69;;;9.17;91.05
48424;BME280;34232;42.502;26.014;2022-11-18T01:38:23;99089.16;;;9.10;91.64
48424;BME280;34232;42.502;26.014;2022-11-18T01:40:49;99086.16;;;9.05;92.42
48424;BME280;34232;42.502;26.014;2022-11-18T01:43:17;99089.75;;;9.04;92.83
48424;BME280;34232;42.502;26.014;2022-11-18T01:45:45;99086.00;;;9.07;92.97
48424;BME280;34232;42.502;26.014;2022-11-18T01:48:37;99091.28;;;9.07;93.72
48424;BME280;34232;42.502;26.014;2022-11-18T01:51:07;99087.81;;;9.06;94.40
48424;BME280;34232;42.502;26.014;2022-11-18T01:53:39;99089.59;;;9.06;94.92
48424;BME280;34232;42.502;26.014;2022-11-18T01:56:11;99091.13;;;9.08;95.81
48424;BME280;34232;42.502;26.014;2022-11-18T02:01:33;99090.97;;;9.10;96.79
48424;BME280;34232;42.502;26.014;2022-11-18T02:03:58;99084.59;;;9.12;97.64
48424;BME280;34232;42.502;26.014;2022-11-18T02:06:24;99086.69;;;9.19;97.49
48424;BME280;34232;42.502;26.014;2022-11-18T02:08:50;99090.97;;;9.20;97.55
48424;BME280;34232;42.502;26.014;2022-11-18T02:11:16;99093.69;;;9.28;97.99
48424;BME280;34232;42.502;26.014;2022-11-18T02:14:03;99096.72;;;9.33;98.33
48424;BME280;34232;42.502;26.014;2022-11-18T02:16:59;99090.34;;;9.45;98.84
48424;BME280;34232;42.502;26.014;2022-11-18T02:28:28;99094.47;;;9.57;97.22
48424;BME280;34232;42.502;26.014;2022-11-18T02:31:13;99095.56;;;9.55;97.89
48424;BME280;34232;42.502;26.014;2022-11-18T02:33:54;99096.63;;;9.62;98.12
48424;BME280;34232;42.502;26.014;2022-11-18T02:39:30;99095.31;;;9.48;98.88
48424;BME280;34232;42.502;26.014;2022-11-18T02:42:00;99092.28;;;9.43;99.50
48424;BME280;34232;42.502;26.014;2022-11-18T02:44:26;99098.63;;;9.50;98.78
48424;BME280;34232;42.502;26.014;2022-11-18T02:46:57;99087.00;;;9.43;97.77
48424;BME280;34232;42.502;26.014;2022-11-18T02:49:47;99093.38;;;9.50;97.80
48424;BME280;34232;42.502;26.014;2022-11-18T02:52:15;99101.25;;;9.50;97.54
48424;BME280;34232;42.502;26.014;2022-11-18T02:54:45;99105.25;;;9.54;96.78
48424;BME280;34232;42.502;26.014;2022-11-18T02:57:12;99106.91;;;9.55;96.08
48424;BME280;34232;42.502;26.014;2022-11-18T02:59:39;99086.34;;;9.41;96.07
48424;BME280;34232;42.502;26.014;2022-11-18T03:02:04;99110.88;;;9.22;97.36
48424;BME280;34232;42.502;26.014;2022-11-18T03:04:31;99108.22;;;9.12;99.07
48424;BME280;34232;42.502;26.014;2022-11-18T03:07:35;99109.06;;;9.13;99.50
48424;BME280;34232;42.502;26.014;2022-11-18T03:10:02;99102.28;;;9.10;99.85
48424;BME280;34232;42.502;26.014;2022-11-18T03:12:44;99108.38;;;9.21;99.94
48424;BME280;34232;42.502;26.014;2022-11-18T03:15:28;99111.66;;;9.32;98.98
48424;BME280;34232;42.502;26.014;2022-11-18T03:20:27;99104.06;;;9.39;97.67
48424;BME280;34232;42.502;26.014;2022-11-18T03:23:01;99110.00;;;9.41;97.36
48424;BME280;34232;42.502;26.014;2022-11-18T03:25:57;99105.81;;;9.48;96.69
48424;BME280;34232;42.502;26.014;2022-11-18T03:31:26;99111.34;;;9.45;95.83
48424;BME280;34232;42.502;26.014;2022-11-18T03:33:57;99109.69;;;9.44;95.56
48424;BME280;34232;42.502;26.014;2022-11-18T03:36:28;99108.84;;;9.43;95.21
48424;BME280;34232;42.502;26.014;2022-11-18T03:38:56;99115.91;;;9.43;94.60
48424;BME280;34232;42.502;26.014;2022-11-18T03:41:24;99113.28;;;9.43;94.70
48424;BME280;34232;42.502;26.014;2022-11-18T03:44:00;99116.88;;;9.42;94.48
48424;BME280;34232;42.502;26.014;2022-11-18T03:46:35;99124.09;;;9.40;94.23
48424;BME280;34232;42.502;26.014;2022-11-18T03:49:04;99121.06;;;9.35;93.80
48424;BME280;34232;42.502;26.014;2022-11-18T03:51:40;99119.41;;;9.34;94.16
48424;BME280;34232;42.502;26.014;2022-11-18T03:54:37;99130.19;;;9.40;94.55
48424;BME280;34232;42.502;26.014;2022-11-18T03:57:08;99128.25;;;9.33;94.15
48424;BME280;34232;42.502;26.014;2022-11-18T03:59:46;99139.16;;;9.38;93.89
48424;BME280;34232;42.502;26.014;2022-11-18T04:02:15;99134.19;;;9.35;93.67
48424;BME280;34232;42.502;26.014;2022-11-18T04:04:43;99132.41;;;9.35;93.15
48424;BME280;34232;42.502;26.014;2022-11-18T04:09:52;99128.38;;;9.31;93.06
48424;BME280;34232;42.502;26.014;2022-11-18T04:12:20;99126.16;;;9.27;92.29
48424;BME280;34232;42.502;26.014;2022-11-18T04:14:46;99126.47;;;9.24;91.93
48424;BME280;34232;42.502;26.014;2022-11-18T04:17:16;99123.84;;;9.24;92.04
48424;BME280;34232;42.502;26.014;2022-11-18T04:19:42;99127.59;;;9.21;92.40
48424;BME280;34232;42.502;26.014;2022-11-18T04:22:09;99119.69;;;9.11;91.75
48424;BME280;34232;42.502;26.014;2022-11-18T04:24:34;99127.88;;;9.08;92.69
48424;BME280;34232;42.502;26.014;2022-11-18T04:27:00;99127.47;;;9.03;91.76
48424;BME280;34232;42.502;26.014;2022-11-18T04:29:27;99129.94;;;8.95;91.69
48424;BME280;34232;42.502;26.014;2022-11-18T04:31:52;99130.25;;;8.92;91.97
48424;BME280;34232;42.502;26.014;2022-11-18T04:34:18;99104.81;;;8.83;91.48
48424;BME280;34232;42.502;26.014;2022-11-18T04:36:43;99118.63;;;8.85;90.80
48424;BME280;34232;42.502;26.014;2022-11-18T04:39:08;99123.19;;;8.83;91.10
48424;BME280;34232;42.502;26.014;2022-11-18T04:41:34;99124.16;;;8.82;91.23
48424;BME280;34232;42.502;26.014;2022-11-18T04:44:18;99124.41;;;8.79;91.12
48424;BME280;34232;42.502;26.014;2022-11-18T04:46:44;99137.41;;;8.81;90.60
48424;BME280;34232;42.502;26.014;2022-11-18T04:49:11;99144.03;;;8.75;89.40
48424;BME280;34232;42.502;26.014;2022-11-18T04:51:39;99143.34;;;8.73;89.65
48424;BME280;34232;42.502;26.014;2022-11-18T04:54:05;99142.34;;;8.55;90.27
48424;BME280;34232;42.502;26.014;2022-11-18T04:56:31;99157.84;;;8.67;90.46
48424;BME280;34232;42.502;26.014;2022-11-18T04:59:00;99157.13;;;8.65;90.17
48424;BME280;34232;42.502;26.014;2022-11-18T05:01:27;99160.84;;;8.63;89.98
48424;BME280;34232;42.502;26.014;2022-11-18T05:03:53;99155.75;;;8.61;89.10
48424;BME280;34232;42.502;26.014;2022-11-18T05:06:19;99147.88;;;8.52;88.47
48424;BME280;34232;42.502;26.014;2022-11-18T05:08:44;99155.75;;;8.52;88.75
48424;BME280;34232;42.502;26.014;2022-11-18T05:11:10;99143.44;;;8.43;89.23
48424;BME280;34232;42.502;26.014;2022-11-18T05:13:54;99150.84;;;8.28;89.82
48424;BME280;34232;42.502;26.014;2022-11-18T05:16:19;99132.97;;;8.12;90.42
48424;BME280;34232;42.502;26.014;2022-11-18T05:18:45;99143.19;;;8.15;90.28
48424;BME280;34232;42.502;26.014;2022-11-18T05:21:11;99134.78;;;8.12;91.03
48424;BME280;34232;42.502;26.014;2022-11-18T05:23:36;99128.94;;;7.98;91.68
48424;BME280;34232;42.502;26.014;2022-11-18T05:26:06;99144.44;;;8.11;91.86
48424;BME280;34232;42.502;26.014;2022-11-18T05:28:32;99144.16;;;8.14;92.23
48424;BME280;34232;42.502;26.014;2022-11-18T05:30:57;99142.50;;;8.13;92.46
48424;BME280;34232;42.502;26.014;2022-11-18T05:33:23;99152.47;;;8.19;92.67
48424;BME280;34232;42.502;26.014;2022-11-18T05:35:48;99146.94;;;8.22;92.55
48424;BME280;34232;42.502;26.014;2022-11-18T05:38:14;99140.03;;;8.21;91.41
48424;BME280;34232;42.502;26.014;2022-11-18T05:40:41;99164.59;;;8.20;91.03
48424;BME280;34232;42.502;26.014;2022-11-18T05:43:10;99145.28;;;8.12;91.17
48424;BME280;34232;42.502;26.014;2022-11-18T05:45:39;99155.69;;;8.02;90.72
48424;BME280;34232;42.502;26.014;2022-11-18T05:48:05;99172.00;;;8.05;91.25
48424;BME280;34232;42.502;26.014;2022-11-18T05:50:33;99161.19;;;7.99;90.46
48424;BME280;34232;42.502;26.014;2022-11-18T05:52:59;99172.25;;;8.02;90.54
48424;BME280;34232;42.502;26.014;2022-11-18T05:55:30;99170.22;;;8.06;90.60
48424;BME280;34232;42.502;26.014;2022-11-18T05:57:58;99169.97;;;8.09;90.71
48424;BME280;34232;42.502;26.014;2022-11-18T06:00:23;99176.84;;;8.10;91.05
48424;BME280;34232;42.502;26.014;2022-11-18T06:02:50;99167.59;;;8.06;90.58
48424;BME280;34232;42.502;26.014;2022-11-18T06:05:18;99179.19;;;8.13;91.10
48424;BME280;34232;42.502;26.014;2022-11-18T06:07:44;99179.47;;;8.10;92.30
48424;BME280;34232;42.502;26.014;2022-11-18T06:10:31;99175.09;;;8.20;92.37
48424;BME280;34232;42.502;26.014;2022-11-18T06:13:00;99186.97;;;8.24;92.33
48424;BME280;34232;42.502;26.014;2022-11-18T06:15:34;99181.47;;;8.27;92.96
48424;BME280;34232;42.502;26.014;2022-11-18T06:20:44;99167.38;;;8.28;93.43
48424;BME280;34232;42.502;26.014;2022-11-18T06:23:11;99178.78;;;8.38;93.33
48424;BME280;34232;42.502;26.014;2022-11-18T06:25:39;99179.34;;;8.42;94.14
48424;BME280;34232;42.502;26.014;2022-11-18T06:28:05;99189.28;;;8.48;94.34
48424;BME280;34232;42.502;26.014;2022-11-18T06:30:31;99175.19;;;8.49;95.00
48424;BME280;34232;42.502;26.014;2022-11-18T06:32:56;99180.19;;;8.62;94.49
48424;BME280;34232;42.502;26.014;2022-11-18T06:35:22;99166.41;;;8.60;94.64
48424;BME280;34232;42.502;26.014;2022-11-18T06:37:47;99165.56;;;8.69;95.32
48424;BME280;34232;42.502;26.014;2022-11-18T06:40:13;99171.13;;;8.75;95.85
48424;BME280;34232;42.502;26.014;2022-11-18T06:42:38;99172.91;;;8.85;95.84
48424;BME280;34232;42.502;26.014;2022-11-18T06:45:25;99168.91;;;8.90;96.07
48424;BME280;34232;42.502;26.014;2022-11-18T06:47:55;99164.47;;;9.00;96.49
48424;BME280;34232;42.502;26.014;2022-11-18T06:50:20;99152.47;;;9.07;97.27
48424;BME280;34232;42.502;26.014;2022-11-18T06:52:46;99159.50;;;9.17;97.90
48424;BME280;34232;42.502;26.014;2022-11-18T06:55:11;99152.03;;;9.22;98.30
48424;BME280;34232;42.502;26.014;2022-11-18T06:57:37;99155.34;;;9.33;98.99
48424;BME280;34232;42.502;26.014;2022-11-18T07:00:03;99142.63;;;9.29;99.21
48424;BME280;34232;42.502;26.014;2022-11-18T07:02:28;99141.22;;;9.44;99.45
48424;BME280;34232;42.502;26.014;2022-11-18T07:04:54;99141.75;;;9.57;99.94
48424;BME280;34232;42.502;26.014;2022-11-18T07:07:19;99136.75;;;9.64;100.00
48424;BME280;34232;42.502;26.014;2022-11-18T07:09:45;99149.19;;;9.71;99.56
48424;BME280;34232;42.502;26.014;2022-11-18T07:12:10;99138.06;;;9.77;99.85
48424;BME280;34232;42.502;26.014;2022-11-18T07:14:36;99140.53;;;9.89;100.00
48424;BME280;34232;42.502;26.014;2022-11-18T07:17:01;99136.34;;;9.96;100.00
48424;BME280;34232;42.502;26.014;2022-11-18T07:19:26;99134.66;;;10.04;100.00
48424;BME280;34232;42.502;26.014;2022-11-18T07:21:52;99136.56;;;10.12;100.00
48424;BME280;34232;42.502;26.014;2022-11-18T07:24:17;99122.13;;;10.16;100.00
48424;BME280;34232;42.502;26.014;2022-11-18T07:26:43;99137.84;;;10.35;100.00
48424;BME280;34232;42.502;26.014;2022-11-18T07:29:11;99138.59;;;10.45;100.00
48424;BME280;34232;42.502;26.014;2022-11-18T07:31:37;99131.41;;;10.47;100.00
48424;BME280;34232;42.502;26.014;2022-11-18T07:34:03;99127.22;;;10.55;100.00
48424;BME280;34232;42.502;26.014;2022-11-18T07:36:29;99118.13;;;10.67;100.00
48424;BME280;34232;42.502;26.014;2022-11-18T07:38:56;99121.19;;;10.80;100.00
48424;BME280;34232;42.502;26.014;2022-11-18T07:41:24;99121.63;;;10.93;100.00
48424;BME280;34232;42.502;26.014;2022-11-18T07:43:52;99119.84;;;10.94;100.00
48424;BME280;34232;42.502;26.014;2022-11-18T07:48:48;99115.22;;;11.13;100.00
48424;BME280;34232;42.502;26.014;2022-11-18T07:51:15;99111.16;;;11.19;100.00
48424;BME280;34232;42.502;26.014;2022-11-18T07:53:40;99121.81;;;11.35;100.00
48424;BME280;34232;42.502;26.014;2022-11-18T07:56:06;99123.06;;;11.49;100.00
48424;BME280;34232;42.502;26.014;2022-11-18T07:58:32;99129.66;;;11.53;100.00
48424;BME280;34232;42.502;26.014;2022-11-18T08:00:58;99134.00;;;11.62;100.00
48424;BME280;34232;42.502;26.014;2022-11-18T08:03:27;99139.50;;;11.69;100.00
48424;BME280;34232;42.502;26.014;2022-11-18T08:05:57;99136.78;;;11.78;100.00
48424;BME280;34232;42.502;26.014;2022-11-18T08:08:23;99143.72;;;11.87;100.00
48424;BME280;34232;42.502;26.014;2022-11-18T08:10:48;99143.63;;;11.97;100.00
48424;BME280;34232;42.502;26.014;2022-11-18T08:13:14;99131.59;;;12.03;100.00
48424;BME280;34232;42.502;26.014;2022-11-18T08:15:40;99141.53;;;12.09;100.00
48424;BME280;34232;42.502;26.014;2022-11-18T08:18:06;99151.31;;;12.16;100.00
48424;BME280;34232;42.502;26.014;2022-11-18T08:20:33;99146.50;;;12.12;100.00
48424;BME280;34232;42.502;26.014;2022-11-18T08:22:59;99149.50;;;12.17;100.00
48424;BME280;34232;42.502;26.014;2022-11-18T08:25:24;99143.25;;;12.26;100.00
48424;BME280;34232;42.502;26.014;2022-11-18T08:27:49;99141.28;;;12.28;100.00
48424;BME280;34232;42.502;26.014;2022-11-18T08:30:15;99123.47;;;12.30;100.00
48424;BME280;34232;42.502;26.014;2022-11-18T08:32:40;99134.72;;;12.40;100.00
48424;BME280;34232;42.502;26.014;2022-11-18T08:35:06;99131.09;;;12.41;100.00
48424;BME280;34232;42.502;26.014;2022-11-18T08:37:32;99134.09;;;12.46;100.00
48424;BME280;34232;42.502;26.014;2022-11-18T08:39:57;99125.81;;;12.41;100.00
48424;BME280;34232;42.502;26.014;2022-11-18T08:42:23;99136.72;;;12.54;100.00
48424;BME280;34232;42.502;26.014;2022-11-18T08:44:49;99126.88;;;12.65;100.00
48424;BME280;34232;42.502;26.014;2022-11-18T08:47:17;99127.69;;;12.65;100.00
48424;BME280;34232;42.502;26.014;2022-11-18T08:49:43;99123.25;;;12.66;100.00
48424;BME280;34232;42.502;26.014;2022-11-18T08:52:09;99126.88;;;12.65;100.00
48424;BME280;34232;42.502;26.014;2022-11-18T08:54:34;99129.34;;;12.66;100.00
48424;BME280;34232;42.502;26.014;2022-11-18T08:57:00;99127.53;;;12.75;100.00
48424;BME280;34232;42.502;26.014;2022-11-18T08:59:25;99130.16;;;12.83;100.00
48424;BME280;34232;42.502;26.014;2022-11-18T09:01:51;99121.44;;;12.82;100.00
48424;BME280;34232;42.502;26.014;2022-11-18T09:04:16;99113.69;;;12.81;100.00
48424;BME280;34232;42.502;26.014;2022-11-18T09:06:42;99122.59;;;12.88;100.00
48424;BME280;34232;42.502;26.014;2022-11-18T09:09:07;99115.50;;;12.88;100.00
48424;BME280;34232;42.502;26.014;2022-11-18T09:11:34;99124.44;;;12.95;100.00
48424;BME280;34232;42.502;26.014;2022-11-18T09:14:00;99114.69;;;12.96;100.00
48424;BME280;34232;42.502;26.014;2022-11-18T09:16:28;99117.31;;;13.04;100.00
48424;BME280;34232;42.502;26.014;2022-11-18T09:18:55;99117.34;;;13.12;100.00
48424;BME280;34232;42.502;26.014;2022-11-18T09:21:20;99122.13;;;13.17;100.00
48424;BME280;34232;42.502;26.014;2022-11-18T09:23:46;99122.97;;;13.25;100.00
48424;BME280;34232;42.502;26.014;2022-11-18T09:26:14;99113.06;;;13.27;100.00
48424;BME280;34232;42.502;26.014;2022-11-18T09:28:43;99109.44;;;13.28;100.00
48424;BME280;34232;42.502;26.014;2022-11-18T09:31:11;99117.00;;;13.31;100.00
48424;BME280;34232;42.502;26.014;2022-11-18T09:33:37;99115.00;;;13.34;100.00
48424;BME280;34232;42.502;26.014;2022-11-18T09:36:05;99109.56;;;13.35;100.00
48424;BME280;34232;42.502;26.014;2022-11-18T09:38:35;99093.56;;;13.28;100.00
48424;BME280;34232;42.502;26.014;2022-11-18T09:49:06;99097.34;;;13.34;100.00
48424;BME280;34232;42.502;26.014;2022-11-18T09:51:41;99089.94;;;13.29;100.00
48424;BME280;34232;42.502;26.014;2022-11-18T09:54:33;99089.94;;;13.29;100.00
48424;BME280;34232;42.502;26.014;2022-11-18T09:56:57;99089.06;;;13.37;100.00
48424;BME280;34232;42.502;26.014;2022-11-18T09:59:27;99091.88;;;13.44;100.00
48424;BME280;34232;42.502;26.014;2022-11-18T10:02:02;99095.81;;;13.56;100.00
48424;BME280;34232;42.502;26.014;2022-11-18T10:04:28;99093.50;;;13.61;100.00
48424;BME280;34232;42.502;26.014;2022-11-18T10:06:53;99081.28;;;13.52;100.00
48424;BME280;34232;42.502;26.014;2022-11-18T10:09:34;99078.78;;;13.58;100.00
48424;BME280;34232;42.502;26.014;2022-11-18T10:12:38;99070.00;;;13.66;100.00
48424;BME280;34232;42.502;26.014;2022-11-18T10:18:06;99055.16;;;13.57;100.00
48424;BME280;34232;42.502;26.014;2022-11-18T10:25:41;99057.81;;;13.57;100.00
48424;BME280;34232;42.502;26.014;2022-11-18T10:28:22;99050.16;;;13.70;100.00
48424;BME280;34232;42.502;26.014;2022-11-18T10:30:48;99040.88;;;13.74;100.00
48424;BME280;34232;42.502;26.014;2022-11-18T10:33:27;99030.25;;;13.82;100.00
48424;BME280;34232;42.502;26.014;2022-11-18T10:39:04;99047.03;;;14.06;100.00
48424;BME280;34232;42.502;26.014;2022-11-18T10:44:29;99031.09;;;14.14;100.00
48424;BME280;34232;42.502;26.014;2022-11-18T10:47:14;99026.75;;;14.21;100.00
48424;BME280;34232;42.502;26.014;2022-11-18T10:49:39;99019.47;;;14.23;100.00
48424;BME280;34232;42.502;26.014;2022-11-18T10:52:11;99018.56;;;14.30;100.00
48424;BME280;34232;42.502;26.014;2022-11-18T10:54:39;99015.75;;;14.40;100.00
48424;BME280;34232;42.502;26.014;2022-11-18T10:57:12;99016.69;;;14.47;100.00
48424;BME280;34232;42.502;26.014;2022-11-18T10:59:41;99012.69;;;14.51;100.00
48424;BME280;34232;42.502;26.014;2022-11-18T11:02:17;99009.03;;;14.52;100.00
48424;BME280;34232;42.502;26.014;2022-11-18T11:04:47;99009.03;;;14.52;100.00
48424;BME280;34232;42.502;26.014;2022-11-18T11:07:24;99002.88;;;14.60;100.00
48424;BME280;34232;42.502;26.014;2022-11-18T11:13:10;98995.00;;;14.66;99.30
48424;BME280;34232;42.502;26.014;2022-11-18T11:15:45;98988.41;;;14.62;100.00
48424;BME280;34232;42.502;26.014;2022-11-18T11:18:19;98976.28;;;14.68;100.00
48424;BME280;34232;42.502;26.014;2022-11-18T11:21:13;98978.81;;;14.61;99.30
48424;BME280;34232;42.502;26.014;2022-11-18T11:23:40;98978.47;;;14.64;99.39
48424;BME280;34232;42.502;26.014;2022-11-18T11:40:06;98933.69;;;15.07;100.00
48424;BME280;34232;42.502;26.014;2022-11-18T11:51:02;98924.16;;;15.27;99.62
48424;BME280;34232;42.502;26.014;2022-11-18T12:07:11;98903.81;;;15.64;97.77
48424;BME280;34232;42.502;26.014;2022-11-18T12:10:01;98903.97;;;15.77;97.19
48424;BME280;34232;42.502;26.014;2022-11-18T12:12:35;98899.94;;;15.81;97.05
48424;BME280;34232;42.502;26.014;2022-11-18T12:17:36;98887.44;;;15.96;96.78
48424;BME280;34232;42.502;26.014;2022-11-18T12:20:35;98882.66;;;16.06;95.71
48424;BME280;34232;42.502;26.014;2022-11-18T12:28:33;98888.56;;;16.30;93.72
48424;BME280;34232;42.502;26.014;2022-11-18T12:44:44;98862.59;;;16.53;91.61
48424;BME280;34232;42.502;26.014;2022-11-18T12:54:54;98852.91;;;16.73;89.40
48424;BME280;34232;42.502;26.014;2022-11-18T12:57:28;98860.13;;;16.79;88.16
48424;BME280;34232;42.502;26.014;2022-11-18T12:59:54;98851.78;;;16.83;88.12
48424;BME280;34232;42.502;26.014;2022-11-18T13:02:25;98841.97;;;16.83;88.33
48424;BME280;34232;42.502;26.014;2022-11-18T13:05:18;98827.25;;;16.87;89.47
48424;BME280;34232;42.502;26.014;2022-11-18T13:07:48;98826.44;;;16.87;88.18
48424;BME280;34232;42.502;26.014;2022-11-18T13:10:38;98815.38;;;16.83;87.92
48424;BME280;34232;42.502;26.014;2022-11-18T13:13:04;98796.72;;;16.76;88.18
48424;BME280;34232;42.502;26.014;2022-11-18T13:15:41;98798.22;;;16.86;89.41
48424;BME280;34232;42.502;26.014;2022-11-18T13:18:25;98810.88;;;16.84;88.46
48424;BME280;34232;42.502;26.014;2022-11-18T13:21:00;98808.41;;;16.82;88.46
48424;BME280;34232;42.502;26.014;2022-11-18T13:23:48;98810.06;;;16.83;88.69
48424;BME280;34232;42.502;26.014;2022-11-18T13:31:47;98799.44;;;16.90;89.92
48424;BME280;34232;42.502;26.014;2022-11-18T13:34:22;98800.69;;;16.94;89.17
48424;BME280;34232;42.502;26.014;2022-11-18T13:36:49;98805.00;;;16.95;89.46
48424;BME280;34232;42.502;26.014;2022-11-18T13:39:30;98799.47;;;16.96;89.04
48424;BME280;34232;42.502;26.014;2022-11-18T13:42:20;98794.59;;;17.00;89.48
48424;BME280;34232;42.502;26.014;2022-11-18T13:48:00;98777.63;;;17.01;89.17
48424;BME280;34232;42.502;26.014;2022-11-18T13:50:34;98763.66;;;16.92;88.38
48424;BME280;34232;42.502;26.014;2022-11-18T13:55:58;98762.84;;;16.92;89.60
48424;BME280;34232;42.502;26.014;2022-11-18T13:58:43;98758.16;;;16.94;89.76
48424;BME280;34232;42.502;26.014;2022-11-18T14:01:18;98753.66;;;16.88;89.57
48424;BME280;34232;42.502;26.014;2022-11-18T14:06:36;98745.88;;;16.93;89.65
48424;BME280;34232;42.502;26.014;2022-11-18T14:09:24;98749.56;;;16.92;89.48
48424;BME280;34232;42.502;26.014;2022-11-18T14:12:21;98769.59;;;16.88;89.11
48424;BME280;34232;42.502;26.014;2022-11-18T14:14:45;98766.50;;;16.84;89.21
48424;BME280;34232;42.502;26.014;2022-11-18T14:17:21;98765.69;;;16.84;89.34
48424;BME280;34232;42.502;26.014;2022-11-18T14:19:52;98774.44;;;16.77;89.39
48424;BME280;34232;42.502;26.014;2022-11-18T14:22:23;98765.84;;;16.75;90.02
48424;BME280;34232;42.502;26.014;2022-11-18T14:25:16;98759.31;;;16.71;90.34
48424;BME280;34232;42.502;26.014;2022-11-18T14:35:42;98748.88;;;16.42;92.33
48424;BME280;34232;42.502;26.014;2022-11-18T14:41:02;98756.78;;;16.29;92.12
48424;BME280;34232;42.502;26.014;2022-11-18T14:43:28;98752.00;;;16.18;92.01
48424;BME280;34232;42.502;26.014;2022-11-18T14:45:57;98771.44;;;16.25;92.07
48424;BME280;34232;42.502;26.014;2022-11-18T14:48:24;98770.84;;;16.23;91.83
48424;BME280;34232;42.502;26.014;2022-11-18T14:50:51;98758.53;;;16.15;92.44
48424;BME280;34232;42.502;26.014;2022-11-18T14:53:17;98735.59;;;16.07;92.11
48424;BME280;34232;42.502;26.014;2022-11-18T14:55:49;98746.69;;;16.18;92.04
48424;BME280;34232;42.502;26.014;2022-11-18T14:58:15;98750.31;;;16.10;91.82
48424;BME280;34232;42.502;26.014;2022-11-18T15:00:42;98764.22;;;16.12;91.67
48424;BME280;34232;42.502;26.014;2022-11-18T15:03:09;98766.88;;;16.12;91.59
48424;BME280;34232;42.502;26.014;2022-11-18T15:05:35;98760.09;;;16.09;91.26
48424;BME280;34232;42.502;26.014;2022-11-18T15:08:00;98747.03;;;16.08;91.28
48424;BME280;34232;42.502;26.014;2022-11-18T15:10:26;98735.56;;;16.01;91.28
48424;BME280;34232;42.502;26.014;2022-11-18T15:12:52;98737.13;;;15.95;91.57
48424;BME280;34232;42.502;26.014;2022-11-18T15:15:17;98737.94;;;15.89;91.97
48424;BME280;34232;42.502;26.014;2022-11-18T15:17:42;98746.84;;;15.82;91.99
48424;BME280;34232;42.502;26.014;2022-11-18T15:20:11;98744.53;;;15.72;92.86
48424;BME280;34232;42.502;26.014;2022-11-18T15:22:38;98742.81;;;15.64;92.86
48424;BME280;34232;42.502;26.014;2022-11-18T15:25:04;98750.72;;;15.58;94.00
48424;BME280;34232;42.502;26.014;2022-11-18T15:27:30;98743.78;;;15.57;93.83
48424;BME280;34232;42.502;26.014;2022-11-18T15:29:55;98739.84;;;15.53;94.10